Back to Top

Language: 

My Weather Underground Personal Weather Station Historical Data with Graphs...

Delerius Weather Station Historical Data
Daily Summary for December 24, 2017 Units:  English    Metric   Both
« Previous Day
Next Day »
Daily Weekly Monthly Yearly Custom
  High: Low: Average:
Temperature: 55.8 °F 50.0 °F 51.8 °F
Dew Point: 49.2 °F 44.8 °F 46.9 °F
Humidity: 88 % 77 % 83 %
Wind Speed: 27.0 mph 1.0 mph 12.7 mph
Wind Gust: 41.0 mph - -
Wind:- - WSW
Pressure: 30.26 in 29.82 in -
Precipitation: 0.00 in    
Historical Graphs
 
 
Tabular Data for December 24, 2017
Time Temperature Dew Point Pressure Wind Wind Speed Wind Gust Humidity Rainfall Rate (Hourly) solar Conditions
00:04 50.4 °F 46.9 °F 30.26 in West 11.0 mph 19.0 mph 88 % 0.00 in 0 W/m2
00:09 50.4 °F 46.6 °F 30.26 in WSW 10.0 mph 15.0 mph 87 % 0.00 in 0 W/m2
00:10 50.4 °F 46.6 °F 30.26 in WSW 11.0 mph 16.0 mph 87 % 0.00 in 0 W/m2
00:14 50.4 °F 46.6 °F 30.26 in West 12.0 mph 15.0 mph 87 % 0.00 in 0 W/m2
00:19 50.4 °F 46.6 °F 30.26 in West 10.0 mph 16.0 mph 87 % 0.00 in 0 W/m2
00:24 50.4 °F 46.6 °F 30.26 in West 10.0 mph 15.0 mph 87 % 0.00 in 0 W/m2
00:29 50.4 °F 46.6 °F 30.25 in West 9.0 mph 15.0 mph 87 % 0.00 in 0 W/m2
00:31 50.4 °F 46.6 °F 30.25 in West 10.0 mph 19.0 mph 87 % 0.00 in 0 W/m2
00:35 50.4 °F 46.6 °F 30.25 in West 7.0 mph 11.0 mph 87 % 0.00 in 0 W/m2
00:37 50.4 °F 46.6 °F 30.25 in WSW 6.0 mph 10.0 mph 87 % 0.00 in 0 W/m2
00:42 50.2 °F 46.5 °F 30.25 in WSW 5.0 mph 9.0 mph 87 % 0.00 in 0 W/m2
00:45 50.0 °F 46.3 °F 30.25 in WSW 7.0 mph 11.0 mph 87 % 0.00 in 0 W/m2
00:50 50.2 °F 46.8 °F 30.24 in WSW 8.0 mph 13.0 mph 88 % 0.00 in 0 W/m2
00:52 50.2 °F 46.5 °F 30.24 in West 7.0 mph 14.0 mph 87 % 0.00 in 0 W/m2
00:57 50.2 °F 46.5 °F 30.24 in West 8.0 mph 13.0 mph 87 % 0.00 in 0 W/m2
00:58 50.2 °F 46.5 °F 30.24 in West 8.0 mph 12.0 mph 87 % 0.00 in 0 W/m2
01:00 50.2 °F 46.5 °F 30.24 in WSW 8.0 mph 11.0 mph 87 % 0.00 in 0 W/m2
01:05 50.2 °F 46.5 °F 30.24 in West 5.0 mph 12.0 mph 87 % 0.00 in 0 W/m2
01:10 50.2 °F 46.5 °F 30.24 in West 10.0 mph 15.0 mph 87 % 0.00 in 0 W/m2
01:11 50.2 °F 46.5 °F 30.24 in West 8.0 mph 13.0 mph 87 % 0.00 in 0 W/m2
01:16 50.2 °F 46.5 °F 30.23 in West 7.0 mph 18.0 mph 87 % 0.00 in 0 W/m2
01:17 50.2 °F 46.5 °F 30.23 in West 6.0 mph 12.0 mph 87 % 0.00 in 0 W/m2
01:23 50.0 °F 46.3 °F 30.23 in West 11.0 mph 23.0 mph 87 % 0.00 in 0 W/m2
01:26 50.2 °F 46.8 °F 30.22 in West 10.0 mph 18.0 mph 88 % 0.00 in 0 W/m2
01:29 50.2 °F 46.8 °F 30.22 in West 11.0 mph 25.0 mph 88 % 0.00 in 0 W/m2
01:34 50.2 °F 46.5 °F 30.22 in West 13.0 mph 21.0 mph 87 % 0.00 in 0 W/m2
01:35 50.2 °F 46.5 °F 30.22 in West 14.0 mph 21.0 mph 87 % 0.00 in 0 W/m2
01:40 50.4 °F 46.6 °F 30.22 in West 11.0 mph 18.0 mph 87 % 0.00 in 0 W/m2
01:41 50.4 °F 46.6 °F 30.22 in West 12.0 mph 18.0 mph 87 % 0.00 in 0 W/m2
01:46 50.2 °F 46.5 °F 30.22 in West 11.0 mph 22.0 mph 87 % 0.00 in 0 W/m2
01:47 50.2 °F 46.5 °F 30.22 in West 11.0 mph 22.0 mph 87 % 0.00 in 0 W/m2
01:52 50.2 °F 46.5 °F 30.21 in West 9.0 mph 14.0 mph 87 % 0.00 in 0 W/m2
01:57 50.2 °F 46.5 °F 30.21 in West 12.0 mph 15.0 mph 87 % 0.00 in 0 W/m2
01:58 50.2 °F 46.5 °F 30.21 in West 11.0 mph 15.0 mph 87 % 0.00 in 0 W/m2
02:03 50.2 °F 46.5 °F 30.21 in West 11.0 mph 16.0 mph 87 % 0.00 in 0 W/m2
02:08 50.2 °F 46.5 °F 30.21 in West 9.0 mph 13.0 mph 87 % 0.00 in 0 W/m2
02:10 50.2 °F 46.5 °F 30.21 in West 9.0 mph 15.0 mph 87 % 0.00 in 0 W/m2
02:15 50.2 °F 46.5 °F 30.21 in West 11.0 mph 23.0 mph 87 % 0.00 in 0 W/m2
02:16 50.2 °F 46.5 °F 30.21 in West 12.0 mph 23.0 mph 87 % 0.00 in 0 W/m2
02:17 50.2 °F 46.5 °F 30.21 in West 11.0 mph 23.0 mph 87 % 0.00 in 0 W/m2
02:22 50.2 °F 46.5 °F 30.21 in West 11.0 mph 19.0 mph 87 % 0.00 in 0 W/m2
02:26 50.4 °F 46.6 °F 30.20 in WSW 12.0 mph 19.0 mph 87 % 0.00 in 0 W/m2
02:28 50.4 °F 46.6 °F 30.20 in WSW 14.0 mph 23.0 mph 87 % 0.00 in 0 W/m2
02:30 50.5 °F 46.8 °F 30.20 in WSW 12.0 mph 22.0 mph 87 % 0.00 in 0 W/m2
02:35 50.5 °F 46.8 °F 30.20 in West 13.0 mph 23.0 mph 87 % 0.00 in 0 W/m2
02:36 50.5 °F 46.8 °F 30.20 in West 13.0 mph 23.0 mph 87 % 0.00 in 0 W/m2
02:38 50.5 °F 46.8 °F 30.20 in West 14.0 mph 22.0 mph 87 % 0.00 in 0 W/m2
02:42 50.5 °F 46.8 °F 30.20 in WSW 14.0 mph 22.0 mph 87 % 0.00 in 0 W/m2
02:44 50.5 °F 46.8 °F 30.20 in WSW 14.0 mph 22.0 mph 87 % 0.00 in 0 W/m2
02:49 50.7 °F 47.0 °F 30.20 in WSW 16.0 mph 22.0 mph 87 % 0.00 in 0 W/m2
02:50 50.7 °F 47.0 °F 30.20 in WSW 17.0 mph 25.0 mph 87 % 0.00 in 0 W/m2
02:55 50.7 °F 47.0 °F 30.19 in WSW 13.0 mph 25.0 mph 87 % 0.00 in 0 W/m2
03:01 50.5 °F 46.8 °F 30.19 in WSW 15.0 mph 24.0 mph 87 % 0.00 in 0 W/m2
03:04 50.5 °F 46.8 °F 30.19 in WSW 14.0 mph 22.0 mph 87 % 0.00 in 0 W/m2
03:06 50.5 °F 46.8 °F 30.19 in West 14.0 mph 22.0 mph 87 % 0.00 in 0 W/m2
03:11 50.5 °F 46.8 °F 30.19 in West 15.0 mph 21.0 mph 87 % 0.00 in 0 W/m2
03:16 50.5 °F 47.1 °F 30.19 in WSW 18.0 mph 28.0 mph 88 % 0.00 in 0 W/m2
03:17 50.5 °F 47.1 °F 30.19 in WSW 16.0 mph 26.0 mph 88 % 0.00 in 0 W/m2
03:22 50.5 °F 47.1 °F 30.18 in WSW 12.0 mph 16.0 mph 88 % 0.00 in 0 W/m2
03:27 50.5 °F 47.1 °F 30.18 in WSW 15.0 mph 22.0 mph 88 % 0.00 in 0 W/m2
03:28 50.5 °F 47.1 °F 30.18 in West 14.0 mph 21.0 mph 88 % 0.00 in 0 W/m2
03:29 50.5 °F 47.1 °F 30.18 in WSW 14.0 mph 21.0 mph 88 % 0.00 in 0 W/m2
03:33 50.5 °F 47.1 °F 30.18 in West 14.0 mph 22.0 mph 88 % 0.00 in 0 W/m2
03:38 50.5 °F 47.1 °F 30.18 in WSW 14.0 mph 21.0 mph 88 % 0.00 in 0 W/m2
03:43 50.5 °F 47.1 °F 30.18 in WSW 16.0 mph 21.0 mph 88 % 0.00 in 0 W/m2
03:48 50.7 °F 47.3 °F 30.18 in WSW 13.0 mph 24.0 mph 88 % 0.00 in 0 W/m2
03:49 50.5 °F 47.1 °F 30.18 in WSW 15.0 mph 25.0 mph 88 % 0.00 in 0 W/m2
03:54 50.7 °F 47.3 °F 30.18 in WSW 14.0 mph 22.0 mph 88 % 0.00 in 0 W/m2
03:59 50.7 °F 47.3 °F 30.17 in West 13.0 mph 21.0 mph 88 % 0.00 in 0 W/m2
04:04 50.7 °F 47.3 °F 30.17 in WSW 15.0 mph 22.0 mph 88 % 0.00 in 0 W/m2
04:05 50.7 °F 47.3 °F 30.17 in WSW 13.0 mph 20.0 mph 88 % 0.00 in 0 W/m2
04:10 50.9 °F 47.5 °F 30.17 in WSW 11.0 mph 16.0 mph 88 % 0.00 in 0 W/m2
04:15 50.9 °F 47.5 °F 30.17 in WSW 11.0 mph 16.0 mph 88 % 0.00 in 0 W/m2
04:18 51.1 °F 47.6 °F 30.17 in WSW 10.0 mph 15.0 mph 88 % 0.00 in 0 W/m2
04:23 51.1 °F 47.6 °F 30.17 in WSW 10.0 mph 16.0 mph 88 % 0.00 in 0 W/m2
04:28 51.3 °F 47.5 °F 30.17 in WSW 11.0 mph 14.0 mph 87 % 0.00 in 0 W/m2
04:30 51.3 °F 47.5 °F 30.17 in WSW 9.0 mph 12.0 mph 87 % 0.00 in 0 W/m2
04:35 51.3 °F 47.5 °F 30.17 in WSW 10.0 mph 13.0 mph 87 % 0.00 in 0 W/m2
04:41 51.3 °F 47.2 °F 30.17 in WSW 5.0 mph 12.0 mph 86 % 0.00 in 0 W/m2
04:46 51.3 °F 47.2 °F 30.16 in WSW 7.0 mph 13.0 mph 86 % 0.00 in 0 W/m2
04:48 51.3 °F 47.2 °F 30.16 in WSW 7.0 mph 10.0 mph 86 % 0.00 in 0 W/m2
04:53 51.4 °F 47.4 °F 30.16 in WSW 10.0 mph 20.0 mph 86 % 0.00 in 0 W/m2
04:54 51.4 °F 47.4 °F 30.16 in WSW 11.0 mph 20.0 mph 86 % 0.00 in 0 W/m2
04:59 51.8 °F 47.4 °F 30.16 in WSW 9.0 mph 14.0 mph 85 % 0.00 in 0 W/m2
05:04 51.8 °F 47.1 °F 30.16 in WSW 12.0 mph 16.0 mph 84 % 0.00 in 0 W/m2
05:06 52.0 °F 47.3 °F 30.16 in WSW 10.0 mph 14.0 mph 84 % 0.00 in 0 W/m2
05:16 51.8 °F 47.1 °F 30.16 in WSW 8.0 mph 12.0 mph 84 % 0.00 in 0 W/m2
05:21 51.8 °F 47.1 °F 30.16 in WSW 7.0 mph 13.0 mph 84 % 0.00 in 0 W/m2
05:23 51.8 °F 47.1 °F 30.16 in WSW 7.0 mph 12.0 mph 84 % 0.00 in 0 W/m2
05:26 51.6 °F 46.9 °F 30.16 in West 8.0 mph 14.0 mph 84 % 0.00 in 0 W/m2
05:29 51.6 °F 46.9 °F 30.16 in West 5.0 mph 11.0 mph 84 % 0.00 in 0 W/m2
05:31 51.6 °F 46.9 °F 30.16 in WSW 4.0 mph 11.0 mph 84 % 0.00 in 0 W/m2
05:36 51.6 °F 46.6 °F 30.16 in SW 2.0 mph 7.0 mph 83 % 0.00 in 0 W/m2
05:37 51.6 °F 46.6 °F 30.16 in South 3.0 mph 10.0 mph 83 % 0.00 in 0 W/m2
05:42 51.6 °F 46.6 °F 30.15 in SW 3.0 mph 8.0 mph 83 % 0.00 in 0 W/m2
05:43 51.6 °F 46.6 °F 30.15 in SW 1.0 mph 6.0 mph 83 % 0.00 in 0 W/m2
05:48 51.4 °F 46.4 °F 30.15 in SW 3.0 mph 5.0 mph 83 % 0.00 in 0 W/m2
05:53 51.3 °F 46.3 °F 30.15 in SSE 1.0 mph 4.0 mph 83 % 0.00 in 0 W/m2
05:55 51.3 °F 46.3 °F 30.15 in SSE 1.0 mph 2.0 mph 83 % 0.00 in 0 W/m2
06:00 51.1 °F 46.4 °F 30.15 in WSW 7.0 mph 15.0 mph 84 % 0.00 in 0 W/m2
06:02 51.1 °F 46.4 °F 30.15 in WSW 5.0 mph 15.0 mph 84 % 0.00 in 0 W/m2
06:03 51.1 °F 46.4 °F 30.15 in SW 2.0 mph 6.0 mph 84 % 0.00 in 0 W/m2
06:08 50.9 °F 46.2 °F 30.14 in West 7.0 mph 14.0 mph 84 % 0.00 in 0 W/m2
06:12 50.9 °F 46.2 °F 30.14 in West 5.0 mph 12.0 mph 84 % 0.00 in 0 W/m2
06:17 50.9 °F 46.2 °F 30.14 in WSW 8.0 mph 13.0 mph 84 % 0.00 in 0 W/m2
06:19 50.9 °F 46.2 °F 30.14 in WSW 8.0 mph 13.0 mph 84 % 0.00 in 0 W/m2
06:22 50.9 °F 46.2 °F 30.14 in SSW 11.0 mph 19.0 mph 84 % 0.00 in 0 W/m2
06:27 50.9 °F 46.2 °F 30.13 in WSW 12.0 mph 21.0 mph 84 % 0.00 in 0 W/m2
06:28 51.1 °F 46.4 °F 30.14 in WSW 10.0 mph 21.0 mph 84 % 0.00 in 0 W/m2
06:33 50.9 °F 46.2 °F 30.14 in SW 7.0 mph 14.0 mph 84 % 0.00 in 0 W/m2
06:36 50.9 °F 46.2 °F 30.13 in SW 8.0 mph 16.0 mph 84 % 0.00 in 0 W/m2
06:41 50.9 °F 46.2 °F 30.13 in SW 7.0 mph 13.0 mph 84 % 0.00 in 0 W/m2
06:42 50.9 °F 46.2 °F 30.13 in WSW 8.0 mph 18.0 mph 84 % 0.00 in 0 W/m2
06:48 50.9 °F 46.2 °F 30.13 in WSW 3.0 mph 7.0 mph 84 % 0.00 in 0 W/m2
06:49 50.9 °F 46.2 °F 30.13 in WSW 5.0 mph 15.0 mph 84 % 0.00 in 0 W/m2
06:54 50.9 °F 46.2 °F 30.13 in WSW 10.0 mph 18.0 mph 84 % 0.00 in 0 W/m2
06:55 50.7 °F 46.1 °F 30.13 in WSW 10.0 mph 18.0 mph 84 % 0.00 in 0 W/m2
07:00 50.7 °F 46.1 °F 30.12 in SW 9.0 mph 15.0 mph 84 % 0.00 in 0 W/m2
07:01 50.7 °F 46.1 °F 30.12 in WSW 9.0 mph 16.0 mph 84 % 0.00 in 0 W/m2
07:06 50.7 °F 46.1 °F 30.12 in WSW 6.0 mph 13.0 mph 84 % 0.00 in 0 W/m2
07:11 50.7 °F 46.4 °F 30.12 in WSW 8.0 mph 15.0 mph 85 % 0.00 in 0 W/m2
07:12 50.7 °F 46.4 °F 30.12 in WSW 8.0 mph 15.0 mph 85 % 0.00 in 0 W/m2
07:17 50.7 °F 46.4 °F 30.11 in SW 9.0 mph 20.0 mph 85 % 0.00 in 0 W/m2
07:19 50.7 °F 46.4 °F 30.11 in SW 11.0 mph 20.0 mph 85 % 0.00 in 0 W/m2
07:24 50.7 °F 46.4 °F 30.11 in SW 8.0 mph 13.0 mph 85 % 0.00 in 0 W/m2
07:27 50.7 °F 46.4 °F 30.11 in WSW 8.0 mph 12.0 mph 85 % 0.00 in 0 W/m2
07:29 50.7 °F 46.4 °F 30.11 in WSW 7.0 mph 13.0 mph 85 % 0.00 in 0 W/m2
07:32 50.7 °F 46.4 °F 30.11 in WSW 6.0 mph 9.0 mph 85 % 0.00 in 0 W/m2
07:37 50.7 °F 46.4 °F 30.11 in WSW 9.0 mph 19.0 mph 85 % 0.00 in 0 W/m2
07:38 50.7 °F 46.4 °F 30.11 in WSW 8.0 mph 15.0 mph 85 % 0.00 in 0 W/m2
07:39 50.7 °F 46.4 °F 30.11 in SW 6.0 mph 10.0 mph 85 % 0.00 in 0 W/m2
07:44 50.7 °F 46.4 °F 30.10 in SW 5.0 mph 11.0 mph 85 % 0.00 in 0 W/m2
07:49 50.7 °F 46.4 °F 30.10 in SSW 5.0 mph 12.0 mph 85 % 0.00 in 0 W/m2
07:52 50.7 °F 46.4 °F 30.10 in WSW 9.0 mph 14.0 mph 85 % 0.00 in 0 W/m2
07:58 50.7 °F 46.4 °F 30.10 in WSW 3.0 mph 9.0 mph 85 % 0.00 in 0 W/m2
08:00 50.7 °F 46.4 °F 30.10 in WSW 5.0 mph 9.0 mph 85 % 0.00 in 0 W/m2
08:01 50.7 °F 46.4 °F 30.10 in WSW 5.0 mph 9.0 mph 85 % 0.00 in 0 W/m2
08:06 50.7 °F 46.7 °F 30.10 in SW 5.0 mph 13.0 mph 86 % 0.00 in 0 W/m2
08:07 50.7 °F 46.7 °F 30.10 in SW 6.0 mph 16.0 mph 86 % 0.00 in 0 W/m2
08:12 50.9 °F 46.9 °F 30.10 in SW 6.0 mph 10.0 mph 86 % 0.00 in 0 W/m2
08:14 50.9 °F 46.9 °F 30.10 in WSW 6.0 mph 10.0 mph 86 % 0.00 in 5 W/m2
08:18 50.9 °F 46.9 °F 30.10 in WSW 5.0 mph 11.0 mph 86 % 0.00 in 5 W/m2
08:23 50.9 °F 46.9 °F 30.10 in WSW 9.0 mph 18.0 mph 86 % 0.00 in 7 W/m2
08:28 51.1 °F 47.0 °F 30.09 in WSW 9.0 mph 14.0 mph 86 % 0.00 in 11 W/m2
08:33 51.1 °F 47.0 °F 30.09 in WSW 10.0 mph 16.0 mph 86 % 0.00 in 14 W/m2
08:37 51.3 °F 47.2 °F 30.09 in WSW 12.0 mph 23.0 mph 86 % 0.00 in 16 W/m2
08:40 51.3 °F 47.2 °F 30.09 in WSW 9.0 mph 13.0 mph 86 % 0.00 in 16 W/m2
08:42 51.3 °F 47.2 °F 30.09 in WSW 13.0 mph 22.0 mph 86 % 0.00 in 19 W/m2
08:48 51.4 °F 47.4 °F 30.08 in WSW 14.0 mph 25.0 mph 86 % 0.00 in 21 W/m2
08:53 51.4 °F 47.4 °F 30.08 in WSW 11.0 mph 20.0 mph 86 % 0.00 in 25 W/m2
08:58 51.4 °F 47.4 °F 30.08 in WSW 13.0 mph 21.0 mph 86 % 0.00 in 30 W/m2
09:04 51.4 °F 47.4 °F 30.08 in WSW 15.0 mph 20.0 mph 86 % 0.00 in 37 W/m2
09:05 51.4 °F 47.4 °F 30.08 in WSW 15.0 mph 23.0 mph 86 % 0.00 in 39 W/m2
09:10 51.6 °F 47.6 °F 30.08 in WSW 12.0 mph 23.0 mph 86 % 0.00 in 39 W/m2
09:15 51.6 °F 47.6 °F 30.07 in WSW 9.0 mph 14.0 mph 86 % 0.00 in 39 W/m2
09:16 51.6 °F 47.9 °F 30.07 in WSW 15.0 mph 25.0 mph 87 % 0.00 in 39 W/m2
09:20 51.8 °F 48.1 °F 30.07 in WSW 12.0 mph 19.0 mph 87 % 0.00 in 40 W/m2
09:25 52.0 °F 47.9 °F 30.07 in WSW 11.0 mph 18.0 mph 86 % 0.00 in 44 W/m2
09:26 52.0 °F 47.9 °F 30.07 in WSW 13.0 mph 25.0 mph 86 % 0.00 in 46 W/m2
09:31 52.2 °F 48.1 °F 30.06 in WSW 16.0 mph 25.0 mph 86 % 0.00 in 46 W/m2
09:33 52.2 °F 48.1 °F 30.07 in WSW 12.0 mph 22.0 mph 86 % 0.00 in 51 W/m2
09:38 52.3 °F 48.3 °F 30.06 in WSW 10.0 mph 21.0 mph 86 % 0.00 in 47 W/m2
09:39 52.3 °F 48.3 °F 30.06 in WSW 9.0 mph 15.0 mph 86 % 0.00 in 47 W/m2
09:44 52.3 °F 48.3 °F 30.07 in WSW 14.0 mph 22.0 mph 86 % 0.00 in 47 W/m2
09:49 52.3 °F 48.3 °F 30.06 in WSW 11.0 mph 22.0 mph 86 % 0.00 in 49 W/m2
09:51 52.3 °F 48.3 °F 30.06 in WSW 15.0 mph 26.0 mph 86 % 0.00 in 58 W/m2
09:54 52.5 °F 48.5 °F 30.06 in WSW 18.0 mph 26.0 mph 86 % 0.00 in 49 W/m2
09:57 52.7 °F 48.3 °F 30.05 in West 14.0 mph 22.0 mph 85 % 0.00 in 53 W/m2
10:02 52.9 °F 48.5 °F 30.05 in West 13.0 mph 20.0 mph 85 % 0.00 in 56 W/m2
10:03 52.9 °F 48.5 °F 30.06 in WSW 14.0 mph 22.0 mph 85 % 0.00 in 58 W/m2
10:08 53.1 °F 48.4 °F 30.05 in WSW 16.0 mph 31.0 mph 84 % 0.00 in 56 W/m2
10:09 53.2 °F 48.5 °F 30.05 in WSW 15.0 mph 29.0 mph 84 % 0.00 in 56 W/m2
10:14 53.2 °F 48.5 °F 30.05 in West 16.0 mph 28.0 mph 84 % 0.00 in 69 W/m2
10:19 53.4 °F 48.7 °F 30.04 in West 17.0 mph 31.0 mph 84 % 0.00 in 86 W/m2
10:20 53.4 °F 48.7 °F 30.05 in West 18.0 mph 31.0 mph 84 % 0.00 in 91 W/m2
10:24 53.8 °F 48.7 °F 30.05 in West 21.0 mph 33.0 mph 83 % 0.00 in 65 W/m2
10:27 54.0 °F 48.9 °F 30.04 in West 17.0 mph 27.0 mph 83 % 0.00 in 67 W/m2
10:32 54.0 °F 48.9 °F 30.04 in WSW 20.0 mph 33.0 mph 83 % 0.00 in 74 W/m2
10:34 54.0 °F 48.6 °F 30.04 in WSW 18.0 mph 33.0 mph 82 % 0.00 in 74 W/m2
10:37 54.1 °F 48.8 °F 30.04 in WSW 17.0 mph 29.0 mph 82 % 0.00 in 79 W/m2
10:39 54.1 °F 48.8 °F 30.04 in WSW 22.0 mph 36.0 mph 82 % 0.00 in 81 W/m2
10:44 54.1 °F 48.8 °F 30.04 in West 19.0 mph 28.0 mph 82 % 0.00 in 102 W/m2
10:46 54.3 °F 48.9 °F 30.04 in WSW 19.0 mph 28.0 mph 82 % 0.00 in 104 W/m2
10:51 54.3 °F 48.9 °F 30.04 in West 23.0 mph 39.0 mph 82 % 0.00 in 81 W/m2
10:53 54.3 °F 48.6 °F 30.03 in West 22.0 mph 32.0 mph 81 % 0.00 in 79 W/m2
10:57 54.3 °F 48.6 °F 30.03 in WSW 21.0 mph 39.0 mph 81 % 0.00 in 86 W/m2
11:02 54.3 °F 48.6 °F 30.03 in West 21.0 mph 31.0 mph 81 % 0.00 in 98 W/m2
11:06 54.5 °F 48.8 °F 30.02 in WSW 21.0 mph 38.0 mph 81 % 0.00 in 105 W/m2
11:09 54.7 °F 49.0 °F 30.03 in WSW 19.0 mph 28.0 mph 81 % 0.00 in 111 W/m2
11:13 54.7 °F 49.0 °F 30.02 in WSW 22.0 mph 30.0 mph 81 % 0.00 in 116 W/m2
11:15 54.7 °F 48.6 °F 30.03 in WSW 20.0 mph 30.0 mph 80 % 0.00 in 123 W/m2
11:21 54.7 °F 48.6 °F 30.02 in WSW 22.0 mph 31.0 mph 80 % 0.00 in 153 W/m2
11:25 55.0 °F 49.0 °F 30.02 in WSW 20.0 mph 29.0 mph 80 % 0.00 in 276 W/m2
11:26 55.0 °F 49.0 °F 30.02 in WSW 19.0 mph 29.0 mph 80 % 0.00 in 327 W/m2
11:31 55.4 °F 49.0 °F 30.01 in WSW 23.0 mph 33.0 mph 79 % 0.00 in 192 W/m2
11:33 55.6 °F 49.2 °F 30.02 in WSW 20.0 mph 31.0 mph 79 % 0.00 in 264 W/m2
11:38 55.8 °F 49.0 °F 30.02 in WSW 22.0 mph 30.0 mph 78 % 0.00 in 267 W/m2
11:41 55.8 °F 49.0 °F 30.01 in WSW 20.0 mph 30.0 mph 78 % 0.00 in 178 W/m2
11:42 55.8 °F 49.0 °F 30.01 in WSW 19.0 mph 30.0 mph 78 % 0.00 in 178 W/m2
11:47 55.6 °F 48.8 °F 30.02 in WSW 24.0 mph 35.0 mph 78 % 0.00 in 137 W/m2
11:48 55.6 °F 48.8 °F 30.02 in WSW 25.0 mph 35.0 mph 78 % 0.00 in 156 W/m2
11:52 55.4 °F 48.7 °F 30.01 in WSW 21.0 mph 34.0 mph 78 % 0.00 in 155 W/m2
11:55 55.4 °F 48.7 °F 30.02 in WSW 20.0 mph 30.0 mph 78 % 0.00 in 125 W/m2
12:00 55.4 °F 48.7 °F 30.02 in WSW 22.0 mph 31.0 mph 78 % 0.00 in 195 W/m2
12:02 55.4 °F 48.7 °F 30.02 in WSW 20.0 mph 30.0 mph 78 % 0.00 in 144 W/m2
12:07 55.2 °F 48.1 °F 30.02 in WSW 21.0 mph 41.0 mph 77 % 0.00 in 116 W/m2
12:12 55.0 °F 48.3 °F 30.01 in WSW 22.0 mph 38.0 mph 78 % 0.00 in 104 W/m2
12:14 55.0 °F 48.0 °F 30.01 in WSW 27.0 mph 38.0 mph 77 % 0.00 in 109 W/m2
12:15 55.0 °F 48.3 °F 30.01 in WSW 23.0 mph 35.0 mph 78 % 0.00 in 109 W/m2
12:20 54.9 °F 48.1 °F 30.01 in WSW 25.0 mph 36.0 mph 78 % 0.00 in 100 W/m2
12:25 54.7 °F 48.3 °F 30.01 in WSW 22.0 mph 31.0 mph 79 % 0.00 in 88 W/m2
12:27 54.7 °F 48.3 °F 30.01 in WSW 22.0 mph 31.0 mph 79 % 0.00 in 100 W/m2
12:32 54.7 °F 48.3 °F 30.01 in WSW 17.0 mph 23.0 mph 79 % 0.00 in 102 W/m2
12:33 54.7 °F 48.3 °F 30.01 in WSW 17.0 mph 27.0 mph 79 % 0.00 in 100 W/m2
12:38 54.7 °F 48.6 °F 30.01 in WSW 17.0 mph 25.0 mph 80 % 0.00 in 79 W/m2
12:43 54.3 °F 48.3 °F 30.01 in SW 19.0 mph 26.0 mph 80 % 0.00 in 72 W/m2
12:45 54.3 °F 48.3 °F 30.01 in WSW 16.0 mph 22.0 mph 80 % 0.00 in 91 W/m2
12:50 54.1 °F 48.4 °F 30.01 in WSW 17.0 mph 25.0 mph 81 % 0.00 in 72 W/m2
12:51 54.1 °F 48.4 °F 30.01 in WSW 18.0 mph 25.0 mph 81 % 0.00 in 70 W/m2
12:56 54.1 °F 48.4 °F 30.01 in SW 18.0 mph 24.0 mph 81 % 0.00 in 93 W/m2
13:01 54.0 °F 48.3 °F 30.01 in WSW 16.0 mph 26.0 mph 81 % 0.00 in 65 W/m2
13:03 54.0 °F 48.3 °F 30.00 in WSW 18.0 mph 28.0 mph 81 % 0.00 in 74 W/m2
13:07 54.0 °F 48.3 °F 30.00 in SW 18.0 mph 32.0 mph 81 % 0.00 in 74 W/m2
13:10 54.0 °F 48.3 °F 30.00 in SW 20.0 mph 37.0 mph 81 % 0.00 in 77 W/m2
13:15 53.8 °F 48.1 °F 30.00 in WSW 13.0 mph 24.0 mph 81 % 0.00 in 70 W/m2
13:17 53.8 °F 48.1 °F 30.00 in WSW 16.0 mph 24.0 mph 81 % 0.00 in 65 W/m2
13:18 53.8 °F 48.1 °F 30.00 in WSW 15.0 mph 25.0 mph 81 % 0.00 in 67 W/m2
13:23 53.8 °F 47.8 °F 29.99 in WSW 19.0 mph 29.0 mph 80 % 0.00 in 58 W/m2
13:24 53.8 °F 47.8 °F 29.99 in WSW 19.0 mph 29.0 mph 80 % 0.00 in 58 W/m2
13:25 53.8 °F 47.8 °F 29.99 in WSW 19.0 mph 32.0 mph 80 % 0.00 in 58 W/m2
13:30 53.8 °F 47.8 °F 29.99 in WSW 18.0 mph 29.0 mph 80 % 0.00 in 44 W/m2
13:35 53.8 °F 47.4 °F 29.99 in WSW 20.0 mph 31.0 mph 79 % 0.00 in 40 W/m2
13:36 53.8 °F 47.8 °F 29.99 in WSW 18.0 mph 26.0 mph 80 % 0.00 in 37 W/m2
13:41 53.6 °F 47.6 °F 29.99 in WSW 20.0 mph 28.0 mph 80 % 0.00 in 33 W/m2
13:44 53.4 °F 47.4 °F 29.99 in WSW 18.0 mph 28.0 mph 80 % 0.00 in 37 W/m2
13:49 53.4 °F 47.4 °F 29.98 in WSW 22.0 mph 33.0 mph 80 % 0.00 in 49 W/m2
13:54 53.2 °F 47.2 °F 29.98 in WSW 17.0 mph 29.0 mph 80 % 0.00 in 46 W/m2
13:58 53.2 °F 47.2 °F 29.98 in WSW 16.0 mph 26.0 mph 80 % 0.00 in 53 W/m2
14:02 53.2 °F 47.2 °F 29.98 in WSW 17.0 mph 25.0 mph 80 % 0.00 in 53 W/m2
14:06 53.2 °F 47.2 °F 29.98 in WSW 19.0 mph 28.0 mph 80 % 0.00 in 53 W/m2
14:11 53.2 °F 47.2 °F 29.98 in WSW 20.0 mph 31.0 mph 80 % 0.00 in 46 W/m2
14:12 53.2 °F 47.2 °F 29.98 in WSW 18.0 mph 29.0 mph 80 % 0.00 in 44 W/m2
14:23 53.1 °F 47.4 °F 29.98 in WSW 17.0 mph 25.0 mph 81 % 0.00 in 47 W/m2
14:28 53.1 °F 47.4 °F 29.98 in WSW 17.0 mph 28.0 mph 81 % 0.00 in 49 W/m2
14:30 53.1 °F 47.4 °F 29.98 in WSW 15.0 mph 24.0 mph 81 % 0.00 in 47 W/m2
14:35 52.9 °F 47.2 °F 29.98 in WSW 15.0 mph 27.0 mph 81 % 0.00 in 44 W/m2
14:36 52.9 °F 47.2 °F 29.98 in WSW 16.0 mph 29.0 mph 81 % 0.00 in 42 W/m2
14:37 52.9 °F 47.2 °F 29.98 in WSW 17.0 mph 29.0 mph 81 % 0.00 in 40 W/m2
14:42 52.9 °F 47.2 °F 29.98 in WSW 19.0 mph 32.0 mph 81 % 0.00 in 44 W/m2
14:45 52.9 °F 47.2 °F 29.98 in WSW 14.0 mph 25.0 mph 81 % 0.00 in 42 W/m2
14:50 52.7 °F 46.7 °F 29.97 in WSW 17.0 mph 27.0 mph 80 % 0.00 in 37 W/m2
14:52 52.7 °F 47.0 °F 29.97 in WSW 16.0 mph 26.0 mph 81 % 0.00 in 35 W/m2
14:57 52.5 °F 46.9 °F 29.97 in WSW 15.0 mph 27.0 mph 81 % 0.00 in 32 W/m2
14:58 52.5 °F 46.9 °F 29.97 in WSW 15.0 mph 27.0 mph 81 % 0.00 in 32 W/m2
15:03 52.5 °F 46.9 °F 29.97 in SW 14.0 mph 21.0 mph 81 % 0.00 in 28 W/m2
15:08 52.3 °F 46.7 °F 29.97 in WSW 13.0 mph 20.0 mph 81 % 0.00 in 25 W/m2
15:10 52.3 °F 46.7 °F 29.97 in WSW 12.0 mph 20.0 mph 81 % 0.00 in 23 W/m2
15:15 52.2 °F 46.8 °F 29.97 in WSW 11.0 mph 21.0 mph 82 % 0.00 in 21 W/m2
15:17 52.2 °F 46.8 °F 29.97 in WSW 10.0 mph 21.0 mph 82 % 0.00 in 21 W/m2
15:18 52.2 °F 46.8 °F 29.97 in WSW 9.0 mph 14.0 mph 82 % 0.00 in 21 W/m2
15:23 52.2 °F 46.8 °F 29.97 in WSW 13.0 mph 26.0 mph 82 % 0.00 in 18 W/m2
15:27 52.2 °F 46.8 °F 29.96 in WSW 14.0 mph 23.0 mph 82 % 0.00 in 16 W/m2
15:29 52.2 °F 46.8 °F 29.97 in WSW 17.0 mph 28.0 mph 82 % 0.00 in 14 W/m2
15:33 52.2 °F 46.8 °F 29.97 in WSW 15.0 mph 27.0 mph 82 % 0.00 in 11 W/m2
15:38 52.2 °F 46.8 °F 29.96 in WSW 16.0 mph 25.0 mph 82 % 0.00 in 7 W/m2
15:39 52.2 °F 46.8 °F 29.96 in WSW 16.0 mph 25.0 mph 82 % 0.00 in 7 W/m2
15:44 52.0 °F 46.7 °F 29.96 in WSW 14.0 mph 24.0 mph 82 % 0.00 in 5 W/m2
15:47 52.0 °F 46.7 °F 29.96 in WSW 15.0 mph 30.0 mph 82 % 0.00 in 0 W/m2
15:49 52.0 °F 46.7 °F 29.96 in SW 11.0 mph 19.0 mph 82 % 0.00 in 0 W/m2
15:54 52.0 °F 46.7 °F 29.96 in WSW 14.0 mph 25.0 mph 82 % 0.00 in 0 W/m2
15:57 52.0 °F 46.7 °F 29.96 in WSW 14.0 mph 24.0 mph 82 % 0.00 in 0 W/m2
16:00 52.0 °F 46.7 °F 29.96 in WSW 13.0 mph 27.0 mph 82 % 0.00 in 0 W/m2
16:05 52.0 °F 46.7 °F 29.95 in SW 17.0 mph 25.0 mph 82 % 0.00 in 0 W/m2
16:10 52.0 °F 46.7 °F 29.95 in WSW 16.0 mph 32.0 mph 82 % 0.00 in 0 W/m2
16:12 52.0 °F 46.7 °F 29.95 in WSW 15.0 mph 24.0 mph 82 % 0.00 in 0 W/m2
16:13 52.0 °F 46.7 °F 29.95 in WSW 17.0 mph 25.0 mph 82 % 0.00 in 0 W/m2
16:18 52.0 °F 46.7 °F 29.95 in WSW 16.0 mph 26.0 mph 82 % 0.00 in 0 W/m2
16:21 52.0 °F 46.7 °F 29.95 in WSW 14.0 mph 24.0 mph 82 % 0.00 in 0 W/m2
16:26 52.0 °F 46.7 °F 29.95 in WSW 13.0 mph 24.0 mph 82 % 0.00 in 0 W/m2
16:29 52.0 °F 46.7 °F 29.95 in WSW 14.0 mph 25.0 mph 82 % 0.00 in 0 W/m2
16:30 52.0 °F 46.7 °F 29.95 in WSW 14.0 mph 25.0 mph 82 % 0.00 in 0 W/m2
16:35 52.0 °F 46.7 °F 29.95 in WSW 15.0 mph 28.0 mph 82 % 0.00 in 0 W/m2
16:40 52.0 °F 46.7 °F 29.95 in WSW 17.0 mph 26.0 mph 82 % 0.00 in 0 W/m2
16:42 52.0 °F 46.7 °F 29.95 in WSW 16.0 mph 26.0 mph 82 % 0.00 in 0 W/m2
16:45 52.0 °F 46.7 °F 29.95 in West 14.0 mph 25.0 mph 82 % 0.00 in 0 W/m2
16:48 52.0 °F 46.7 °F 29.95 in WSW 10.0 mph 19.0 mph 82 % 0.00 in 0 W/m2
16:50 51.8 °F 46.5 °F 29.95 in WSW 10.0 mph 23.0 mph 82 % 0.00 in 0 W/m2
16:54 51.8 °F 46.5 °F 29.94 in WSW 15.0 mph 26.0 mph 82 % 0.00 in 0 W/m2
16:59 51.8 °F 46.5 °F 29.95 in WSW 14.0 mph 25.0 mph 82 % 0.00 in 0 W/m2
17:00 51.8 °F 46.5 °F 29.94 in WSW 10.0 mph 15.0 mph 82 % 0.00 in 0 W/m2
17:05 51.6 °F 46.3 °F 29.94 in WSW 11.0 mph 21.0 mph 82 % 0.00 in 0 W/m2
17:10 51.6 °F 46.3 °F 29.95 in WSW 17.0 mph 24.0 mph 82 % 0.00 in 0 W/m2
17:11 51.8 °F 46.5 °F 29.94 in WSW 17.0 mph 24.0 mph 82 % 0.00 in 0 W/m2
17:16 51.8 °F 46.5 °F 29.94 in SW 9.0 mph 18.0 mph 82 % 0.00 in 0 W/m2
17:17 51.8 °F 46.5 °F 29.94 in SW 10.0 mph 18.0 mph 82 % 0.00 in 0 W/m2
17:22 51.6 °F 46.3 °F 29.94 in SW 11.0 mph 21.0 mph 82 % 0.00 in 0 W/m2
17:26 51.8 °F 46.5 °F 29.95 in WSW 12.0 mph 20.0 mph 82 % 0.00 in 0 W/m2
17:31 51.8 °F 46.5 °F 29.95 in SW 8.0 mph 13.0 mph 82 % 0.00 in 0 W/m2
17:32 51.8 °F 46.5 °F 29.95 in SW 7.0 mph 13.0 mph 82 % 0.00 in 0 W/m2
17:37 51.6 °F 46.3 °F 29.95 in SSW 7.0 mph 11.0 mph 82 % 0.00 in 0 W/m2
17:38 51.6 °F 46.3 °F 29.95 in SW 7.0 mph 11.0 mph 82 % 0.00 in 0 W/m2
17:42 51.6 °F 46.3 °F 29.95 in SW 8.0 mph 12.0 mph 82 % 0.00 in 0 W/m2
17:45 51.6 °F 46.3 °F 29.95 in SW 10.0 mph 15.0 mph 82 % 0.00 in 0 W/m2
17:50 51.6 °F 46.3 °F 29.95 in WSW 15.0 mph 28.0 mph 82 % 0.00 in 0 W/m2
17:51 51.6 °F 46.3 °F 29.94 in WSW 15.0 mph 28.0 mph 82 % 0.00 in 0 W/m2
17:54 51.8 °F 46.5 °F 29.94 in WSW 12.0 mph 21.0 mph 82 % 0.00 in 0 W/m2
17:56 51.8 °F 46.5 °F 29.94 in SW 10.0 mph 15.0 mph 82 % 0.00 in 0 W/m2
18:01 51.8 °F 46.5 °F 29.94 in SW 9.0 mph 16.0 mph 82 % 0.00 in 0 W/m2
18:03 51.6 °F 46.3 °F 29.94 in SW 12.0 mph 22.0 mph 82 % 0.00 in 0 W/m2
18:06 51.6 °F 46.3 °F 29.94 in SW 9.0 mph 13.0 mph 82 % 0.00 in 0 W/m2
18:10 51.6 °F 46.3 °F 29.94 in WSW 7.0 mph 10.0 mph 82 % 0.00 in 0 W/m2
18:15 51.6 °F 46.3 °F 29.94 in SW 11.0 mph 22.0 mph 82 % 0.00 in 0 W/m2
18:16 51.6 °F 46.3 °F 29.94 in SW 11.0 mph 22.0 mph 82 % 0.00 in 0 W/m2
18:19 51.6 °F 46.3 °F 29.94 in SW 8.0 mph 20.0 mph 82 % 0.00 in 0 W/m2
18:24 51.6 °F 46.3 °F 29.93 in WSW 12.0 mph 19.0 mph 82 % 0.00 in 0 W/m2
18:27 51.6 °F 46.3 °F 29.93 in SSW 9.0 mph 16.0 mph 82 % 0.00 in 0 W/m2
18:28 51.6 °F 46.3 °F 29.93 in SSW 10.0 mph 16.0 mph 82 % 0.00 in 0 W/m2
18:32 51.6 °F 46.3 °F 29.93 in SW 7.0 mph 13.0 mph 82 % 0.00 in 0 W/m2
18:36 51.6 °F 46.3 °F 29.93 in SW 7.0 mph 12.0 mph 82 % 0.00 in 0 W/m2
18:39 51.6 °F 46.3 °F 29.93 in SW 7.0 mph 12.0 mph 82 % 0.00 in 0 W/m2
18:42 51.6 °F 46.3 °F 29.93 in SW 7.0 mph 14.0 mph 82 % 0.00 in 0 W/m2
18:47 51.6 °F 46.3 °F 29.93 in SSW 10.0 mph 16.0 mph 82 % 0.00 in 0 W/m2
18:48 51.6 °F 46.3 °F 29.93 in SW 8.0 mph 13.0 mph 82 % 0.00 in 0 W/m2
18:49 51.6 °F 46.3 °F 29.93 in WSW 8.0 mph 11.0 mph 82 % 0.00 in 0 W/m2
18:54 51.4 °F 46.4 °F 29.92 in SW 10.0 mph 15.0 mph 83 % 0.00 in 0 W/m2
18:59 51.4 °F 46.4 °F 29.92 in SW 9.0 mph 16.0 mph 83 % 0.00 in 0 W/m2
19:00 51.4 °F 46.4 °F 29.92 in SW 8.0 mph 12.0 mph 83 % 0.00 in 0 W/m2
19:05 51.4 °F 46.4 °F 29.92 in SSW 7.0 mph 14.0 mph 83 % 0.00 in 0 W/m2
19:07 51.4 °F 46.4 °F 29.92 in SW 8.0 mph 14.0 mph 83 % 0.00 in 0 W/m2
19:12 51.4 °F 46.4 °F 29.92 in WSW 11.0 mph 20.0 mph 83 % 0.00 in 0 W/m2
19:14 51.4 °F 46.4 °F 29.92 in SW 7.0 mph 18.0 mph 83 % 0.00 in 0 W/m2
19:19 51.4 °F 46.4 °F 29.92 in WSW 3.0 mph 8.0 mph 83 % 0.00 in 0 W/m2
19:20 51.4 °F 46.4 °F 29.92 in SW 5.0 mph 9.0 mph 83 % 0.00 in 0 W/m2
19:25 51.4 °F 46.4 °F 29.92 in SSW 6.0 mph 9.0 mph 83 % 0.00 in 0 W/m2
19:26 51.4 °F 46.4 °F 29.92 in SSW 6.0 mph 10.0 mph 83 % 0.00 in 0 W/m2
19:27 51.4 °F 46.4 °F 29.91 in South 6.0 mph 10.0 mph 83 % 0.00 in 0 W/m2
19:32 51.3 °F 46.3 °F 29.91 in WSW 7.0 mph 13.0 mph 83 % 0.00 in 0 W/m2
19:35 51.3 °F 46.3 °F 29.91 in SW 9.0 mph 15.0 mph 83 % 0.00 in 0 W/m2
19:38 51.3 °F 46.6 °F 29.91 in SW 9.0 mph 13.0 mph 84 % 0.00 in 0 W/m2
19:43 51.3 °F 46.6 °F 29.91 in SW 9.0 mph 14.0 mph 84 % 0.00 in 0 W/m2
19:44 51.3 °F 46.6 °F 29.91 in SW 9.0 mph 14.0 mph 84 % 0.00 in 0 W/m2
19:47 51.3 °F 46.6 °F 29.91 in SW 8.0 mph 13.0 mph 84 % 0.00 in 0 W/m2
19:52 51.3 °F 46.6 °F 29.91 in SW 9.0 mph 12.0 mph 84 % 0.00 in 0 W/m2
19:56 51.3 °F 46.6 °F 29.91 in SW 9.0 mph 15.0 mph 84 % 0.00 in 0 W/m2
19:57 51.3 °F 46.6 °F 29.90 in SW 9.0 mph 13.0 mph 84 % 0.00 in 0 W/m2
20:02 51.3 °F 46.6 °F 29.90 in SW 8.0 mph 13.0 mph 84 % 0.00 in 0 W/m2
20:03 51.3 °F 46.6 °F 29.90 in SW 8.0 mph 13.0 mph 84 % 0.00 in 0 W/m2
20:08 51.3 °F 46.3 °F 29.90 in SW 14.0 mph 26.0 mph 83 % 0.00 in 0 W/m2
20:12 51.4 °F 46.4 °F 29.90 in SW 15.0 mph 22.0 mph 83 % 0.00 in 0 W/m2
20:17 51.4 °F 46.1 °F 29.90 in SW 12.0 mph 22.0 mph 82 % 0.00 in 0 W/m2
20:19 51.4 °F 46.1 °F 29.90 in SW 12.0 mph 22.0 mph 82 % 0.00 in 0 W/m2
20:20 51.4 °F 46.1 °F 29.90 in SW 10.0 mph 14.0 mph 82 % 0.00 in 0 W/m2
20:25 51.3 °F 46.0 °F 29.90 in SW 10.0 mph 19.0 mph 82 % 0.00 in 0 W/m2
20:26 51.3 °F 46.0 °F 29.90 in SW 10.0 mph 19.0 mph 82 % 0.00 in 0 W/m2
20:31 51.3 °F 46.0 °F 29.90 in SW 14.0 mph 22.0 mph 82 % 0.00 in 0 W/m2
20:33 51.3 °F 46.0 °F 29.90 in SW 12.0 mph 22.0 mph 82 % 0.00 in 0 W/m2
20:38 51.3 °F 46.0 °F 29.89 in SW 10.0 mph 18.0 mph 82 % 0.00 in 0 W/m2
20:43 51.3 °F 46.0 °F 29.89 in SSW 9.0 mph 16.0 mph 82 % 0.00 in 0 W/m2
20:48 51.1 °F 45.8 °F 29.89 in SW 13.0 mph 25.0 mph 82 % 0.00 in 0 W/m2
20:52 51.1 °F 45.8 °F 29.89 in SW 12.0 mph 19.0 mph 82 % 0.00 in 0 W/m2
20:54 51.1 °F 45.8 °F 29.89 in SW 13.0 mph 23.0 mph 82 % 0.00 in 0 W/m2
20:58 51.1 °F 45.8 °F 29.89 in SW 13.0 mph 23.0 mph 82 % 0.00 in 0 W/m2
21:03 51.1 °F 45.8 °F 29.88 in SW 15.0 mph 24.0 mph 82 % 0.00 in 0 W/m2
21:04 51.1 °F 45.8 °F 29.89 in SW 15.0 mph 24.0 mph 82 % 0.00 in 0 W/m2
21:09 51.3 °F 46.0 °F 29.88 in SW 14.0 mph 27.0 mph 82 % 0.00 in 0 W/m2
21:10 51.3 °F 46.0 °F 29.88 in SW 17.0 mph 27.0 mph 82 % 0.00 in 0 W/m2
21:15 51.3 °F 46.0 °F 29.88 in SW 14.0 mph 25.0 mph 82 % 0.00 in 0 W/m2
21:18 51.3 °F 46.0 °F 29.87 in SW 12.0 mph 18.0 mph 82 % 0.00 in 0 W/m2
21:23 51.1 °F 45.8 °F 29.87 in SW 13.0 mph 23.0 mph 82 % 0.00 in 0 W/m2
21:27 51.1 °F 45.8 °F 29.87 in SW 11.0 mph 18.0 mph 82 % 0.00 in 0 W/m2
21:32 51.1 °F 45.5 °F 29.87 in SW 14.0 mph 22.0 mph 81 % 0.00 in 0 W/m2
21:36 51.1 °F 45.5 °F 29.87 in SW 17.0 mph 25.0 mph 81 % 0.00 in 0 W/m2
21:41 51.1 °F 45.5 °F 29.87 in SW 14.0 mph 22.0 mph 81 % 0.00 in 0 W/m2
21:46 51.1 °F 45.5 °F 29.86 in SW 11.0 mph 20.0 mph 81 % 0.00 in 0 W/m2
21:48 51.1 °F 45.5 °F 29.87 in SW 14.0 mph 23.0 mph 81 % 0.00 in 0 W/m2
21:53 51.1 °F 45.8 °F 29.86 in WSW 14.0 mph 21.0 mph 82 % 0.00 in 0 W/m2
21:56 51.1 °F 45.8 °F 29.86 in SW 16.0 mph 25.0 mph 82 % 0.00 in 0 W/m2
22:01 51.1 °F 45.8 °F 29.86 in SW 11.0 mph 18.0 mph 82 % 0.00 in 0 W/m2
22:02 51.1 °F 45.8 °F 29.86 in SW 11.0 mph 18.0 mph 82 % 0.00 in 0 W/m2
22:07 51.1 °F 45.8 °F 29.86 in WSW 14.0 mph 21.0 mph 82 % 0.00 in 0 W/m2
22:08 51.1 °F 45.8 °F 29.86 in WSW 15.0 mph 24.0 mph 82 % 0.00 in 0 W/m2
22:13 51.1 °F 45.5 °F 29.86 in WSW 16.0 mph 25.0 mph 81 % 0.00 in 0 W/m2
22:14 51.3 °F 45.6 °F 29.86 in WSW 18.0 mph 26.0 mph 81 % 0.00 in 0 W/m2
22:17 51.3 °F 45.6 °F 29.86 in SW 16.0 mph 29.0 mph 81 % 0.00 in 0 W/m2
22:20 51.4 °F 45.8 °F 29.85 in WSW 19.0 mph 28.0 mph 81 % 0.00 in 0 W/m2
22:25 51.4 °F 45.5 °F 29.85 in SW 16.0 mph 32.0 mph 80 % 0.00 in 0 W/m2
22:28 51.4 °F 45.5 °F 29.85 in SW 17.0 mph 27.0 mph 80 % 0.00 in 0 W/m2
22:33 51.3 °F 45.6 °F 29.85 in SW 19.0 mph 27.0 mph 81 % 0.00 in 0 W/m2
22:34 51.3 °F 45.6 °F 29.85 in WSW 18.0 mph 27.0 mph 81 % 0.00 in 0 W/m2
22:35 51.3 °F 45.6 °F 29.85 in WSW 18.0 mph 27.0 mph 81 % 0.00 in 0 W/m2
22:40 51.3 °F 45.3 °F 29.84 in WSW 18.0 mph 28.0 mph 80 % 0.00 in 0 W/m2
22:42 51.3 °F 45.3 °F 29.84 in WSW 16.0 mph 28.0 mph 80 % 0.00 in 0 W/m2
22:47 51.3 °F 45.0 °F 29.84 in SW 15.0 mph 28.0 mph 79 % 0.00 in 0 W/m2
22:48 51.3 °F 45.0 °F 29.84 in SW 14.0 mph 22.0 mph 79 % 0.00 in 0 W/m2
22:53 51.4 °F 45.1 °F 29.84 in SW 18.0 mph 27.0 mph 79 % 0.00 in 0 W/m2
22:55 51.4 °F 45.1 °F 29.84 in SW 17.0 mph 28.0 mph 79 % 0.00 in 0 W/m2
23:00 51.3 °F 45.0 °F 29.84 in SW 15.0 mph 27.0 mph 79 % 0.00 in 0 W/m2
23:05 51.4 °F 45.1 °F 29.83 in WSW 17.0 mph 26.0 mph 79 % 0.00 in 0 W/m2
23:09 51.4 °F 44.8 °F 29.84 in SW 19.0 mph 33.0 mph 78 % 0.00 in 0 W/m2
23:14 51.6 °F 45.0 °F 29.84 in WSW 14.0 mph 22.0 mph 78 % 0.00 in 0 W/m2
23:19 51.8 °F 45.2 °F 29.84 in WSW 16.0 mph 24.0 mph 78 % 0.00 in 0 W/m2
23:24 51.8 °F 45.2 °F 29.84 in SW 17.0 mph 29.0 mph 78 % 0.00 in 0 W/m2
23:28 51.8 °F 45.2 °F 29.83 in WSW 15.0 mph 21.0 mph 78 % 0.00 in 0 W/m2
23:33 51.6 °F 45.0 °F 29.83 in SW 16.0 mph 24.0 mph 78 % 0.00 in 0 W/m2
23:34 51.6 °F 45.0 °F 29.83 in WSW 16.0 mph 23.0 mph 78 % 0.00 in 0 W/m2
23:35 51.6 °F 45.0 °F 29.83 in WSW 16.0 mph 23.0 mph 78 % 0.00 in 0 W/m2
23:40 51.6 °F 45.0 °F 29.83 in SW 19.0 mph 28.0 mph 78 % 0.00 in 0 W/m2
23:45 51.6 °F 45.0 °F 29.83 in SW 17.0 mph 24.0 mph 78 % 0.00 in 0 W/m2
23:46 51.6 °F 45.0 °F 29.83 in SW 18.0 mph 24.0 mph 78 % 0.00 in 0 W/m2
23:51 51.4 °F 45.1 °F 29.82 in SW 17.0 mph 28.0 mph 79 % 0.00 in 0 W/m2
23:54 51.4 °F 45.1 °F 29.82 in SW 19.0 mph 33.0 mph 79 % 0.00 in 0 W/m2
23:55 51.4 °F 45.1 °F 29.82 in SW 20.0 mph 33.0 mph 79 % 0.00 in 0 W/m2
Delerius-Weather
Compliments of Weather Underground - 3 mb

Data updates at regular intervals.